.
WxDataArchive / Data Records for 2010-09-01
2010-08-31 September 2010 2010-09-02

Data Records for Wednesday, 01 September 2010

Time	Temp	Chill	HIndex	Humid	Dewpt	 Wind 	HiWind	WindDir	Rain 	Barom 
-----	----	-----	------	-----	-----	------	------	-------	-----	----- 
00:00	76.5	76.5	78.4	59	61.1	0	1	248	0.00	30.008 
00:05	76.3	76.3	78.2	60	61.4	0	1	248	0.00	30.008 
00:10	76.1	76.1	78.1	60	61.2	0	0	---	0.00	30.008 
00:15	76.0	76.0	78.0	60	61.1	0	1	248	0.00	30.001 
00:20	75.8	75.8	77.8	61	61.4	0	1	248	0.00	30.001 
00:25	75.6	75.6	77.7	61	61.2	0	1	248	0.00	30.001 
00:30	75.4	75.4	77.6	61	61.0	0	1	248	0.00	30.001 
00:35	75.3	75.3	77.5	62	61.4	0	0	---	0.00	30.001 
00:40	75.1	75.1	77.4	61	60.7	0	1	248	0.00	30.001 
00:45	75.1	75.1	77.3	62	61.2	0	1	248	0.00	30.000 
00:50	75.1	75.1	77.3	62	61.2	0	1	248	0.00	30.000 
00:55	75.1	75.1	77.3	62	61.2	0	2	248	0.00	30.000 
01:00	75.1	75.1	77.3	62	61.2	0	4	292	0.00	30.001 
01:05	75.3	75.3	77.5	62	61.4	0	1	292	0.00	30.001 
01:10	75.3	75.3	77.5	61	60.9	0	1	292	0.00	30.001 
01:15	75.4	75.4	77.6	61	61.0	0	2	292	0.00	30.001 
01:20	75.4	75.4	77.6	61	61.0	0	1	292	0.00	30.001 
01:25	75.3	75.3	77.5	61	60.9	0	2	292	0.00	30.001 
01:30	75.3	75.3	77.5	60	60.4	0	1	292	0.00	30.004 
01:35	75.3	75.3	77.5	60	60.4	0	1	292	0.00	30.004 
01:40	75.1	75.1	77.4	60	60.2	0	0	---	0.00	30.004 
01:45	75.1	75.1	77.4	60	60.2	0	1	292	0.00	30.013 
01:50	75.1	75.1	77.5	59	59.8	0	2	292	0.00	30.013 
01:55	75.4	75.4	77.6	59	60.1	0	1	292	0.00	30.013 
02:00	75.4	75.4	77.6	59	60.1	0	1	292	0.00	30.012 
02:05	75.4	75.4	77.7	58	59.6	0	2	292	0.00	30.012 
02:10	75.4	75.4	77.7	58	59.6	0	1	292	0.00	30.012 
02:15	75.4	75.4	77.7	58	59.6	0	2	270	0.00	30.008 
02:20	75.6	75.6	77.8	58	59.8	0	1	270	0.00	30.008 
02:25	75.6	75.6	77.8	58	59.8	0	2	270	0.00	30.008 
02:30	75.4	75.4	77.7	58	59.6	0	1	270	0.00	30.002 
02:35	75.4	75.4	77.7	58	59.6	0	1	270	0.00	30.002 
02:40	75.6	75.6	77.8	58	59.8	1	3	270	0.00	30.002 
02:45	75.8	75.8	77.9	58	59.9	0	3	270	0.00	29.999 
02:50	75.6	75.6	77.8	58	59.8	0	1	270	0.00	29.999 
02:55	75.6	75.6	77.8	58	59.8	0	2	270	0.00	29.999 
03:00	75.6	75.6	77.8	58	59.8	0	2	270	0.00	29.999 
03:05	75.4	75.4	77.7	58	59.6	0	3	270	0.00	29.999 
03:10	75.4	75.4	77.7	58	59.6	1	3	248	0.00	29.999 
03:15	75.3	75.3	77.6	58	59.5	0	2	248	0.00	30.000 
03:20	75.3	75.3	77.6	59	60.0	0	2	248	0.00	30.000 
03:25	75.1	75.1	77.5	59	59.8	0	1	248	0.00	30.000 
03:30	74.9	74.9	74.9	60	60.1	0	3	248	0.00	29.998 
03:35	74.7	74.7	74.7	60	59.9	0	1	248	0.00	29.998 
03:40	74.7	74.7	74.7	61	60.3	0	2	248	0.00	29.998 
03:45	74.6	74.6	74.6	61	60.2	0	2	248	0.00	30.001 
03:50	74.6	74.6	74.6	61	60.2	0	2	248	0.00	30.001 
03:55	74.6	74.6	74.6	61	60.2	0	2	248	0.00	30.001 
04:00	74.4	74.4	74.4	62	60.5	0	2	248	0.00	29.993 
04:05	74.0	74.0	74.0	62	60.1	0	1	248	0.00	29.993 
04:10	73.7	73.7	73.7	63	60.3	0	2	248	0.00	29.993 
04:15	73.3	73.3	73.3	64	60.4	0	0	---	0.00	29.986 
04:20	73.2	73.2	73.2	65	60.7	0	3	248	0.00	29.986 
04:25	72.8	72.8	72.8	65	60.3	0	1	248	0.00	29.986 
04:30	72.7	72.7	72.7	66	60.7	0	1	248	0.00	29.983 
04:35	72.3	72.3	72.3	66	60.3	0	2	248	0.00	29.983 
04:40	72.3	72.3	72.3	67	60.7	0	0	---	0.00	29.983 
04:45	72.1	72.1	72.1	67	60.5	0	1	248	0.00	29.984 
04:50	72.0	72.0	72.0	67	60.4	0	2	248	0.00	29.984 
04:55	72.0	72.0	72.0	68	60.8	0	2	248	0.00	29.984 
05:00	72.0	72.0	72.0	68	60.8	0	1	248	0.00	29.978 
05:05	72.0	72.0	72.0	68	60.8	0	3	248	0.00	29.978 
05:10	72.0	72.0	72.0	68	60.8	0	1	248	0.00	29.978 
05:15	72.0	72.0	72.0	68	60.8	0	1	248	0.00	29.974 
05:20	71.8	71.8	71.8	68	60.7	0	3	225	0.00	29.974 
05:25	71.8	71.8	71.8	68	60.7	0	2	180	0.00	29.974 
05:30	71.8	71.8	71.8	68	60.7	0	2	22	0.00	29.972 
05:35	71.6	71.6	71.6	69	60.9	0	2	248	0.00	29.972 
05:40	71.6	71.6	71.6	69	60.9	0	1	248	0.00	29.972 
05:45	71.6	71.6	71.6	69	60.9	0	2	248	0.00	29.972 
05:50	71.6	71.6	71.6	69	60.9	0	1	248	0.00	29.972 
05:55	71.6	71.6	71.6	69	60.9	1	4	248	0.00	29.972 
06:00	72.0	72.0	72.0	68	60.8	1	4	248	0.00	29.978 
06:05	72.0	72.0	72.0	68	60.8	0	2	248	0.00	29.978 
06:10	72.0	72.0	72.0	68	60.8	0	2	292	0.00	29.978 
06:15	71.8	71.8	71.8	69	61.1	0	4	270	0.00	29.981 
06:20	71.8	71.8	71.8	69	61.1	0	4	248	0.00	29.981 
06:25	71.6	71.6	71.6	69	60.9	0	1	248	0.00	29.981 
06:30	71.5	71.5	71.5	70	61.2	0	1	248	0.00	29.985 
06:35	71.3	71.3	71.3	70	61.0	0	1	248	0.00	29.985 
06:40	71.3	71.3	71.3	70	61.0	0	2	248	0.00	29.985 
06:45	71.3	71.3	71.3	70	61.0	0	1	248	0.00	29.987 
06:50	71.3	71.3	71.3	70	61.0	0	1	248	0.00	29.987 
06:55	71.3	71.3	71.3	70	61.0	0	1	248	0.00	29.987 
07:00	71.3	71.3	71.3	70	61.0	0	1	248	0.00	29.987 
07:05	71.1	71.1	71.1	71	61.2	0	1	248	0.00	29.987 
07:10	71.1	71.1	71.1	71	61.2	0	1	248	0.00	29.987 
07:15	71.1	71.1	71.1	71	61.2	0	3	248	0.00	29.989 
07:20	71.5	71.5	71.5	70	61.2	0	3	248	0.00	29.989 
07:25	71.5	71.5	71.5	70	61.2	0	1	248	0.00	29.989 
07:30	71.5	71.5	71.5	70	61.2	1	3	248	0.00	29.998 
07:35	71.6	71.6	71.6	70	61.3	0	1	248	0.00	29.998 
07:40	71.6	71.6	71.6	70	61.3	0	2	248	0.00	29.998 
07:45	71.8	71.8	71.8	70	61.5	0	2	248	0.00	29.998 
07:50	72.0	72.0	72.0	70	61.7	1	3	248	0.00	29.998 
07:55	72.1	72.1	72.1	70	61.8	0	1	270	0.00	29.998 
08:00	72.5	72.5	72.5	69	61.7	0	2	270	0.00	30.000 
08:05	72.7	72.7	72.7	69	61.9	0	2	270	0.00	30.000 
08:10	73.0	73.0	73.0	69	62.2	0	2	270	0.00	30.000 
08:15	73.2	73.2	73.2	68	62.0	1	3	270	0.00	29.998 
08:20	73.7	73.7	73.7	67	62.0	1	4	270	0.00	29.998 
08:25	73.9	73.9	73.9	67	62.2	1	3	292	0.00	29.998 
08:30	74.0	74.0	74.0	66	61.9	1	3	292	0.00	29.998 
08:35	74.4	74.4	74.4	66	62.3	1	5	315	0.00	29.998 
08:40	74.4	74.4	74.4	66	62.3	1	5	225	0.00	29.998 
08:45	74.6	74.6	74.6	66	62.5	0	3	225	0.00	29.993 
08:50	74.9	74.9	74.9	65	62.3	1	2	225	0.00	29.993 
08:55	75.3	75.3	77.3	65	62.7	0	3	270	0.00	29.993 
09:00	75.4	75.4	77.4	64	62.4	1	5	248	0.00	29.993 
09:05	75.8	75.8	77.7	64	62.7	1	3	270	0.00	29.993 
09:10	76.0	76.0	77.9	64	62.9	1	4	270	0.00	29.993 
09:15	76.5	76.5	78.3	63	62.9	1	4	292	0.00	29.991 
09:20	76.7	76.7	78.5	63	63.1	1	5	270	0.00	29.991 
09:25	77.0	77.0	78.8	62	63.0	1	3	248	0.00	29.991 
09:30	77.4	77.4	79.2	62	63.3	1	4	248	0.00	29.991 
09:35	77.6	77.6	79.4	62	63.5	1	4	292	0.00	29.991 
09:40	78.1	78.1	79.8	61	63.5	2	4	248	0.00	29.991 
09:45	78.3	78.3	80.0	61	63.7	2	5	292	0.00	29.985 
09:50	78.6	78.6	80.3	60	63.5	1	4	225	0.00	29.985 
09:55	78.8	78.8	80.5	60	63.7	2	5	248	0.00	29.985 
10:00	79.2	79.2	80.8	59	63.6	2	7	270	0.00	29.979 
10:05	79.6	79.6	81.2	58	63.5	2	5	270	0.00	29.979 
10:10	79.9	79.9	81.5	58	63.8	1	4	270	0.00	29.979 
10:15	80.5	80.5	82.2	58	64.3	1	3	225	0.00	29.974 
10:20	81.1	81.1	82.6	56	63.9	2	5	270	0.00	29.974 
10:25	81.4	81.4	82.8	55	63.7	2	5	270	0.00	29.974 
10:30	81.8	81.8	83.2	54	63.5	2	7	270	0.00	29.971 
10:35	82.0	82.0	83.4	54	63.7	2	4	270	0.00	29.971 
10:40	82.4	82.4	83.9	54	64.1	2	5	270	0.00	29.971 
10:45	82.8	82.8	84.2	53	63.9	2	5	270	0.00	29.969 
10:50	83.4	83.4	84.8	52	63.9	1	6	292	0.00	29.969 
10:55	83.8	83.8	85.3	52	64.3	2	5	248	0.00	29.969 
11:00	84.0	84.0	85.1	50	63.3	2	6	270	0.00	29.966 
11:05	84.1	84.1	85.5	51	64.0	2	6	270	0.00	29.966 
11:10	84.7	84.7	86.0	50	64.0	1	4	248	0.00	29.966 
11:15	85.1	85.1	86.4	49	63.8	2	4	248	0.00	29.954 
11:20	85.3	85.3	86.6	49	63.9	2	5	270	0.00	29.954 
11:25	85.9	85.9	87.2	48	63.9	2	5	270	0.00	29.954 
11:30	86.3	86.3	87.5	47	63.7	1	5	315	0.00	29.953 
11:35	86.5	86.5	87.5	46	63.2	2	4	270	0.00	29.953 
11:40	86.7	86.7	88.1	47	64.0	1	4	248	0.00	29.953 
11:45	87.0	87.0	88.2	46	63.7	3	6	270	0.00	29.951 
11:50	86.7	86.7	87.8	46	63.4	3	7	270	0.00	29.951 
11:55	87.0	87.0	88.5	47	64.3	1	5	270	0.00	29.951 
12:00	87.0	87.0	88.5	47	64.3	2	9	248	0.00	29.950 
12:05	86.5	86.5	88.1	48	64.4	2	7	248	0.00	29.950 
12:10	87.4	87.4	89.1	47	64.7	1	3	292	0.00	29.950 
12:15	87.4	87.4	89.1	47	64.7	2	5	270	0.00	29.951 
12:20	87.2	87.2	88.8	47	64.5	1	6	248	0.00	29.951 
12:25	86.1	86.1	87.8	49	64.7	2	5	270	0.00	29.951 
12:30	85.9	85.9	87.5	49	64.5	1	4	270	0.00	29.940 
12:35	85.9	85.9	87.7	50	65.1	2	5	270	0.00	29.940 
12:40	86.7	86.7	88.3	48	64.6	2	6	292	0.00	29.940 
12:45	86.7	86.7	88.3	48	64.6	2	5	292	0.00	29.939 
12:50	86.3	86.3	88.0	49	64.9	1	5	270	0.00	29.939 
12:55	85.9	85.9	87.7	50	65.1	2	4	270	0.00	29.939 
13:00	86.7	86.7	88.6	49	65.2	1	5	248	0.00	29.937 
13:05	87.8	87.8	89.7	47	65.0	2	9	90	0.00	29.937 
13:10	88.4	88.4	90.3	46	64.9	2	6	270	0.00	29.937 
13:15	88.4	88.4	90.3	46	64.9	3	9	270	0.00	29.932 
13:20	88.2	88.2	90.3	47	65.4	3	7	248	0.00	29.932 
13:25	87.8	87.8	89.7	47	65.0	2	4	270	0.00	29.932 
13:30	88.2	88.2	90.3	47	65.4	2	5	248	0.00	29.921 
13:35	89.0	89.0	90.9	45	64.9	2	5	90	0.00	29.921 
13:40	89.0	89.0	90.9	45	64.9	2	7	248	0.00	29.921 
13:45	89.0	89.0	90.9	45	64.9	2	6	248	0.00	29.919 
13:50	88.2	88.2	90.0	46	64.8	2	6	292	0.00	29.919 
13:55	87.6	87.6	89.7	48	65.4	2	7	270	0.00	29.919 
14:00	87.8	87.8	89.7	47	65.0	2	7	270	0.00	29.919 
14:05	87.8	87.8	89.4	46	64.4	2	5	270	0.00	29.919 
14:10	88.0	88.0	90.0	47	65.2	1	7	248	0.00	29.919 
14:15	88.0	88.0	89.7	46	64.6	3	9	270	0.00	29.914 
14:20	87.6	87.6	89.1	46	64.2	3	6	270	0.00	29.914 
14:25	87.4	87.4	89.4	48	65.3	1	3	270	0.00	29.914 
14:30	87.2	87.2	88.8	47	64.5	2	4	270	0.00	29.913 
14:35	87.2	87.2	89.1	48	65.1	1	3	292	0.00	29.913 
14:40	87.4	87.4	89.1	47	64.7	2	5	270	0.00	29.913 
14:45	87.4	87.4	89.1	47	64.7	2	4	270	0.00	29.911 
14:50	87.6	87.6	89.4	47	64.8	2	5	248	0.00	29.911 
14:55	87.8	87.8	89.7	47	65.0	1	5	270	0.00	29.911 
15:00	87.8	87.8	89.4	46	64.4	2	5	270	0.00	29.910 
15:05	87.8	87.8	89.7	47	65.0	2	4	270	0.00	29.910 
15:10	88.2	88.2	90.0	46	64.8	1	4	112	0.00	29.910 
15:15	88.4	88.4	90.3	46	64.9	1	4	270	0.00	29.907 
15:20	88.6	88.6	90.3	45	64.5	2	7	270	0.00	29.907 
15:25	89.0	89.0	90.2	43	63.6	2	7	270	0.00	29.907 
15:30	88.8	88.8	90.2	44	64.0	2	5	270	0.00	29.907 
15:35	88.6	88.6	89.6	43	63.2	2	6	248	0.00	29.907 
15:40	88.6	88.6	89.9	44	63.9	2	4	270	0.00	29.907 
15:45	88.6	88.6	89.9	44	63.9	2	5	270	0.00	29.904 
15:50	88.4	88.4	90.0	45	64.3	2	6	270	0.00	29.904 
15:55	88.8	88.8	89.9	43	63.4	3	8	270	0.00	29.904 
16:00	88.4	88.4	89.3	43	63.0	2	4	248	0.00	29.900 
16:05	88.2	88.2	89.0	43	62.8	1	4	292	0.00	29.900 
16:10	88.0	88.0	89.0	44	63.3	2	4	270	0.00	29.900 
16:15	88.0	88.0	89.0	44	63.3	1	4	270	0.00	29.899 
16:20	88.0	88.0	89.4	45	64.0	1	4	270	0.00	29.899 
16:25	88.0	88.0	89.7	46	64.6	3	7	270	0.00	29.899 
16:30	87.6	87.6	89.1	46	64.2	2	5	270	0.00	29.902 
16:35	87.2	87.2	88.5	46	63.9	1	3	292	0.00	29.902 
16:40	86.7	86.7	88.1	47	64.0	1	3	292	0.00	29.902 
16:45	86.3	86.3	87.8	48	64.3	3	7	270	0.00	29.910 
16:50	83.6	83.6	85.9	56	66.2	5	10	270	0.00	29.910 
16:55	82.2	82.2	84.7	60	66.9	4	10	270	0.00	29.910 
17:00	81.6	81.6	84.0	61	66.8	3	6	292	0.00	29.922 
17:05	81.4	81.4	83.9	62	67.1	2	5	270	0.00	29.922 
17:10	81.2	81.2	83.6	62	66.9	3	6	270	0.00	29.922 
17:15	81.1	81.1	83.6	63	67.3	2	4	270	0.00	29.927 
17:20	80.9	80.9	83.4	63	67.1	3	6	248	0.00	29.927 
17:25	80.3	80.3	82.7	64	67.0	4	7	270	0.00	29.927 
17:30	79.9	79.9	82.3	66	67.5	3	9	270	0.00	29.927 
17:35	79.8	79.8	82.3	67	67.8	4	7	270	0.00	29.927 
17:40	79.4	79.4	81.8	68	67.9	3	5	270	0.00	29.927 
17:45	79.2	79.2	81.6	69	68.1	3	7	270	0.00	29.929 
17:50	79.0	79.0	81.3	69	67.9	3	7	270	0.00	29.929 
17:55	78.8	78.8	81.1	69	67.7	2	5	270	0.00	29.929 
18:00	79.0	79.0	81.3	69	67.9	2	5	292	0.00	29.928 
18:05	79.0	79.0	81.3	68	67.5	2	6	270	0.00	29.928 
18:10	79.2	79.2	81.5	67	67.3	2	6	270	0.00	29.928 
18:15	79.4	79.4	81.6	66	67.0	1	3	270	0.00	29.924 
18:20	79.6	79.6	81.8	65	66.8	2	5	270	0.00	29.924 
18:25	79.6	79.6	81.7	64	66.3	2	5	270	0.00	29.924 
18:30	79.4	79.4	81.4	63	65.7	3	5	270	0.00	29.927 
18:35	79.4	79.4	81.5	64	66.1	2	5	315	0.00	29.927 
18:40	79.4	79.4	81.6	65	66.6	3	6	270	0.00	29.927 
18:45	79.4	79.4	81.6	65	66.6	2	5	270	0.00	29.927 
18:50	79.4	79.4	81.6	65	66.6	2	5	292	0.00	29.927 
18:55	79.2	79.2	81.3	65	66.4	3	5	270	0.00	29.927 
19:00	79.0	79.0	81.0	65	66.2	2	4	270	0.00	29.930 
19:05	79.0	79.0	81.1	66	66.6	2	6	270	0.00	29.930 
19:10	78.8	78.8	80.9	67	66.9	2	6	270	0.00	29.930 
19:15	78.6	78.6	80.7	67	66.7	3	5	270	0.00	29.929 
19:20	78.6	78.6	80.7	68	67.1	2	6	248	0.00	29.929 
19:25	78.5	78.5	80.7	69	67.5	1	4	248	0.00	29.929 
19:30	78.3	78.3	80.4	69	67.3	2	5	248	0.00	29.931 
19:35	78.1	78.1	80.2	70	67.5	2	6	248	0.00	29.931 
19:40	78.1	78.1	80.2	70	67.5	1	3	248	0.00	29.931 
19:45	77.9	77.9	79.9	71	67.7	2	4	248	0.00	29.933 
19:50	77.7	77.7	79.7	74	68.7	2	6	270	0.00	29.933 
19:55	77.0	77.0	78.7	76	68.8	1	4	248	0.00	29.933 
20:00	76.5	76.5	78.0	76	68.4	1	4	270	0.00	29.933 
20:05	76.5	76.5	78.0	75	68.0	1	4	270	0.00	29.933 
20:10	76.5	76.5	78.1	74	67.6	1	2	270	0.00	29.933 
20:15	76.5	76.5	78.1	74	67.6	0	3	270	0.00	29.930 
20:20	76.5	76.5	78.1	74	67.6	0	2	270	0.00	29.930 
20:25	76.5	76.5	78.1	73	67.2	0	1	270	0.00	29.930 
20:30	76.5	76.5	78.1	73	67.2	0	2	270	0.00	29.925 
20:35	76.5	76.5	78.1	73	67.2	0	1	270	0.00	29.925 
20:40	76.5	76.5	78.1	73	67.2	0	1	270	0.00	29.925 
20:45	76.5	76.5	78.1	72	66.8	0	3	270	0.00	29.929 
20:50	76.5	76.5	78.2	71	66.4	0	1	270	0.00	29.929 
20:55	76.5	76.5	78.2	71	66.4	0	2	270	0.00	29.929 
21:00	76.3	76.3	77.9	72	66.6	1	3	270	0.00	29.931 
21:05	76.3	76.3	77.9	72	66.6	1	2	270	0.00	29.931 
21:10	76.1	76.1	77.6	73	66.8	1	3	270	0.00	29.931 
21:15	76.1	76.1	77.6	73	66.8	0	3	270	0.00	29.943 
21:20	76.0	76.0	77.4	74	67.1	1	3	270	0.00	29.943 
21:25	75.8	75.8	77.1	75	67.3	0	1	270	0.00	29.943 
21:30	75.6	75.6	76.8	76	67.5	1	2	270	0.00	29.944 
21:35	75.4	75.4	76.5	76	67.3	0	2	270	0.00	29.944 
21:40	75.3	75.3	76.4	76	67.2	1	2	270	0.00	29.944 
21:45	75.3	75.3	76.4	76	67.2	0	2	270	0.00	29.945 
21:50	75.3	75.3	76.4	76	67.2	0	1	270	0.00	29.945 
21:55	75.3	75.3	76.4	76	67.2	0	1	270	0.00	29.945 
22:00	75.1	75.1	76.2	76	67.0	0	2	270	0.00	29.949 
22:05	75.1	75.1	76.2	76	67.0	1	3	270	0.00	29.949 
22:10	75.1	75.1	76.2	76	67.0	0	2	270	0.00	29.949 
22:15	74.9	74.9	74.9	77	67.2	0	1	270	0.00	29.942 
22:20	74.9	74.9	74.9	77	67.2	0	1	270	0.00	29.942 
22:25	74.7	74.7	74.7	77	67.0	0	1	270	0.00	29.942 
22:30	74.7	74.7	74.7	77	67.0	0	1	270	0.00	29.947 
22:35	74.7	74.7	74.7	78	67.4	0	2	270	0.00	29.947 
22:40	74.6	74.6	74.6	78	67.3	0	2	270	0.00	29.947 
22:45	74.6	74.6	74.6	79	67.6	0	1	270	0.00	29.947 
22:50	74.6	74.6	74.6	79	67.6	0	1	270	0.00	29.947 
22:55	74.4	74.4	74.4	79	67.4	0	1	270	0.00	29.947 
23:00	74.4	74.4	74.4	80	67.8	0	0	---	0.00	29.942 
23:05	74.2	74.2	74.2	80	67.6	0	0	---	0.00	29.942 
23:10	74.2	74.2	74.2	80	67.6	0	1	270	0.00	29.942 
23:15	74.2	74.2	74.2	80	67.6	0	1	270	0.00	29.948 
23:20	74.0	74.0	74.0	81	67.8	0	1	270	0.00	29.948 
23:25	74.0	74.0	74.0	81	67.8	0	0	---	0.00	29.948 
23:30	73.9	73.9	73.9	82	68.0	0	0	---	0.00	29.950 
23:35	73.9	73.9	73.9	83	68.4	0	0	---	0.00	29.950 
23:40	73.7	73.7	73.7	84	68.6	0	1	270	0.00	29.950 
23:45	73.5	73.5	73.5	84	68.4	0	0	---	0.00	29.955 
23:50	73.5	73.5	73.5	84	68.4	0	1	270	0.00	29.955 
23:55	73.3	73.3	73.3	85	68.5	0	2	270	0.02	29.955 

CoCoRaHS
IN-AL-39
A2 Web Hosting
Creative Commons License
GoDaddy
search engine by freefind advanced

loaded 2018-11-12 19:28:04 • last modified 2010-11-18 10:43:29
Privacy PolicyDisclaimer
• wx.awcolley.com is powered by PmWiki v.2002016 •
• all content (unless otherwise noted) © 2018 A W Colley